Alva, Kentucky
Current Conditions -  °F | °C
As of 1:15 AM on Monday 22 Dec 2014 (Local Time) from KI35 Reporting Station
Overcast Overcast  
Wind Chill: 30°   Ceiling: 3800
Heat Index: 34°   Visibility: 10mi
Dew Point: 32°   Wind: 5mph
Humidity: 93%   Direction: 90°E
Pressure: 30.08"   Gusts: NA
Location:  36.747°N, 83.4563°W
Report Text: KI35 220615Z AUTO 09004KT 10SM OVC038 01/00 A3008 RMK AO1
Loading
Personal Weather Stations






























Interactive Weather Map New forecast layout! Learn more

10-Day Weather Forecast

Advertisements
Track Severe Weather on mobile